Time;durP1;ratioP1;P1;durP2;ratioP2;P2;SDS_P1;SDS_P2;PMS_P1;PMS_P2;Temp;Humidity;BMP_temperature;BMP_pressure;BME280_temperature;BME280_humidity;BME280_pressure;Samples;Min_cycle;Max_cycle;Signal;HPM_P1;HPM_P2
2020/12/30 00:00:06;;;;;;;13.88;12.68;;;0.60;99.90;;;;;;5058847;28;20233;-76
2020/12/30 00:02:33;;;;;;;12.57;11.38;;;0.60;99.90;;;;;;5060045;28;20303;-76
2020/12/30 00:05:00;;;;;;;12.98;11.85;;;0.60;99.90;;;;;;5060692;28;20232;-75
2020/12/30 00:07:31;;;;;;;11.75;10.75;;;0.60;99.90;;;;;;5059369;28;20213;-75
2020/12/30 00:09:58;;;;;;;12.38;11.18;;;0.60;99.90;;;;;;5059845;28;20227;-76
2020/12/30 00:12:27;;;;;;;12.30;11.20;;;0.70;99.90;;;;;;5061380;28;20226;-75
2020/12/30 00:14:54;;;;;;;11.95;10.95;;;0.70;99.90;;;;;;5061627;28;20228;-75
2020/12/30 00:17:21;;;;;;;11.52;10.45;;;0.70;99.90;;;;;;5064711;28;20218;-75
2020/12/30 00:19:47;;;;;;;11.98;10.93;;;0.70;99.90;;;;;;5065977;28;20716;-76
2020/12/30 00:22:14;;;;;;;11.30;10.40;;;0.80;99.90;;;;;;5063423;28;20642;-75
2020/12/30 00:24:41;;;;;;;12.15;11.07;;;0.70;99.90;;;;;;5072088;28;20723;-75
2020/12/30 00:27:08;;;;;;;12.10;11.10;;;0.70;99.90;;;;;;5068450;28;20758;-75
2020/12/30 00:29:35;;;;;;;11.10;10.15;;;0.70;99.90;;;;;;5073147;28;20217;-75
2020/12/30 00:32:02;;;;;;;10.50;9.60;;;0.70;99.90;;;;;;5065156;28;20602;-75
2020/12/30 00:34:29;;;;;;;10.38;9.48;;;0.70;99.90;;;;;;5069264;28;20232;-76
2020/12/30 00:36:55;;;;;;;11.13;10.15;;;0.80;99.90;;;;;;5068397;28;20222;-75
2020/12/30 00:39:22;;;;;;;9.52;8.70;;;0.80;99.90;;;;;;5062732;28;20249;-75
2020/12/30 00:41:54;;;;;;;9.50;8.65;;;0.80;99.90;;;;;;5065902;28;20245;-75
2020/12/30 00:44:20;;;;;;;9.43;8.65;;;0.80;99.90;;;;;;5067575;28;20214;-76
2020/12/30 00:46:51;;;;;;;9.05;8.35;;;0.80;99.90;;;;;;5057711;28;20222;-76
2020/12/30 00:49:17;;;;;;;8.77;8.13;;;0.80;99.90;;;;;;5046546;28;20228;-76
2020/12/30 00:51:49;;;;;;;9.10;8.40;;;0.80;99.90;;;;;;5049740;28;20637;-75
2020/12/30 00:54:15;;;;;;;8.80;8.07;;;0.80;99.90;;;;;;5058394;28;20627;-75
2020/12/30 00:56:42;;;;;;;8.60;7.90;;;0.90;99.90;;;;;;5068422;28;20221;-76
2020/12/30 00:59:09;;;;;;;8.77;8.07;;;0.80;99.90;;;;;;5066420;28;20304;-75
2020/12/30 01:01:36;;;;;;;8.60;7.90;;;0.90;99.90;;;;;;5071184;28;20209;-76
2020/12/30 01:04:02;;;;;;;8.82;8.20;;;0.80;99.90;;;;;;5070318;28;20233;-76
2020/12/30 01:06:29;;;;;;;9.57;8.70;;;0.80;99.90;;;;;;5070752;28;20279;-73
2020/12/30 01:08:56;;;;;;;9.25;8.45;;;0.80;99.90;;;;;;5060996;28;20221;-75
2020/12/30 01:11:27;;;;;;;8.43;7.72;;;0.80;99.90;;;;;;5062580;28;20283;-76
2020/12/30 01:13:53;;;;;;;9.32;8.60;;;0.80;99.90;;;;;;5068865;28;20225;-74
2020/12/30 01:16:21;;;;;;;8.77;8.05;;;0.80;99.90;;;;;;5071964;28;20226;-75
2020/12/30 01:18:47;;;;;;;8.68;7.97;;;0.80;99.90;;;;;;5068937;28;20249;-76
2020/12/30 01:21:14;;;;;;;9.32;8.43;;;0.90;99.90;;;;;;5068264;28;20229;-76
2020/12/30 01:23:41;;;;;;;7.93;7.32;;;0.80;99.90;;;;;;5068854;28;20291;-75
2020/12/30 01:26:08;;;;;;;8.05;7.40;;;0.90;99.90;;;;;;5067351;28;20217;-76
2020/12/30 01:28:34;;;;;;;8.18;7.57;;;0.90;99.90;;;;;;5073272;28;20230;-76
2020/12/30 01:31:01;;;;;;;8.65;7.95;;;0.90;99.90;;;;;;5069537;28;20968;-76
2020/12/30 01:33:28;;;;;;;7.85;7.25;;;0.90;99.90;;;;;;5062702;28;20267;-76
2020/12/30 01:35:55;;;;;;;8.13;7.53;;;0.90;99.90;;;;;;5062361;28;20291;-75
2020/12/30 01:38:21;;;;;;;8.13;7.53;;;0.90;99.90;;;;;;5057733;28;20245;-74
2020/12/30 01:40:48;;;;;;;7.57;6.97;;;0.90;99.90;;;;;;5056850;28;20232;-76
2020/12/30 01:43:15;;;;;;;7.43;6.82;;;0.90;99.90;;;;;;5068182;28;21182;-75
2020/12/30 01:45:41;;;;;;;8.20;7.60;;;0.90;99.90;;;;;;5067258;28;20661;-75
2020/12/30 01:48:15;;;;;;;8.10;7.47;;;1.00;99.90;;;;;;5066353;28;20223;-76
2020/12/30 01:50:44;;;;;;;7.68;7.07;;;1.00;99.90;;;;;;5065850;28;20214;-77
2020/12/30 01:53:10;;;;;;;7.40;6.90;;;1.00;99.90;;;;;;5066842;28;20297;-75
2020/12/30 01:55:40;;;;;;;7.65;7.15;;;1.00;99.90;;;;;;5068008;28;20232;-75
2020/12/30 01:58:06;;;;;;;8.00;7.32;;;1.00;99.90;;;;;;5065200;28;20267;-76
2020/12/30 02:00:33;;;;;;;7.28;6.68;;;1.00;99.90;;;;;;5067681;28;20226;-76
2020/12/30 02:03:02;;;;;;;7.05;6.55;;;1.00;99.90;;;;;;5065104;28;20233;-75
2020/12/30 02:05:31;;;;;;;7.75;7.15;;;1.10;99.90;;;;;;5067254;28;20707;-75
2020/12/30 02:07:59;;;;;;;7.82;7.22;;;1.00;99.90;;;;;;5061535;28;20774;-75
2020/12/30 02:10:27;;;;;;;8.10;7.30;;;1.10;99.90;;;;;;5061872;28;20225;-75
2020/12/30 02:12:54;;;;;;;8.60;7.90;;;1.00;99.90;;;;;;5067573;28;20846;-74
2020/12/30 02:15:25;;;;;;;8.23;7.63;;;1.00;99.90;;;;;;5069203;28;20222;-75
2020/12/30 02:17:52;;;;;;;8.00;7.40;;;1.00;99.90;;;;;;5072399;28;20275;-76
2020/12/30 02:20:18;;;;;;;7.97;7.38;;;1.00;99.90;;;;;;5066639;28;20227;-75
2020/12/30 02:22:49;;;;;;;7.13;6.53;;;1.00;99.90;;;;;;5071530;28;20221;-75
2020/12/30 02:25:16;;;;;;;8.00;7.40;;;1.00;99.90;;;;;;5067711;28;20230;-75
2020/12/30 02:27:43;;;;;;;8.30;7.60;;;1.00;99.90;;;;;;5069713;28;20225;-75
2020/12/30 02:30:09;;;;;;;9.13;8.32;;;1.00;99.90;;;;;;5064769;28;20218;-75
2020/12/30 02:32:36;;;;;;;9.43;8.65;;;1.00;99.90;;;;;;5073217;28;20256;-76
2020/12/30 02:35:03;;;;;;;8.80;8.10;;;1.00;99.90;;;;;;5068226;28;20222;-75
2020/12/30 02:37:29;;;;;;;8.68;8.00;;;0.90;99.90;;;;;;5067179;28;20223;-75
2020/12/30 02:39:56;;;;;;;8.00;7.40;;;0.90;99.90;;;;;;5060990;28;20253;-76
2020/12/30 02:42:23;;;;;;;8.32;7.68;;;0.90;99.90;;;;;;5059391;28;20887;-76
2020/12/30 02:44:52;;;;;;;7.55;6.95;;;0.90;99.90;;;;;;5058199;28;20217;-76
2020/12/30 02:47:19;;;;;;;8.40;7.72;;;1.00;99.90;;;;;;5064803;28;20592;-75
2020/12/30 02:49:45;;;;;;;8.23;7.63;;;1.00;99.90;;;;;;5063871;28;20225;-75
2020/12/30 02:52:12;;;;;;;7.95;7.35;;;1.00;99.90;;;;;;5064398;28;20590;-76
2020/12/30 02:54:38;;;;;;;8.25;7.65;;;0.90;99.90;;;;;;5065627;28;20218;-76
2020/12/30 02:57:05;;;;;;;8.00;7.40;;;0.90;99.90;;;;;;5068980;28;20730;-75
2020/12/30 02:59:32;;;;;;;8.02;7.40;;;0.90;99.90;;;;;;5066077;28;20217;-76
2020/12/30 03:01:58;;;;;;;8.38;7.68;;;0.80;99.90;;;;;;5069114;28;20224;-75
2020/12/30 03:04:25;;;;;;;8.88;8.18;;;0.80;99.90;;;;;;5067252;28;20233;-76
2020/12/30 03:06:51;;;;;;;8.82;8.02;;;0.80;99.90;;;;;;5063082;28;20276;-75
2020/12/30 03:09:18;;;;;;;8.43;7.82;;;0.80;99.90;;;;;;5062653;28;20225;-75
2020/12/30 03:11:49;;;;;;;8.00;7.40;;;0.80;99.90;;;;;;5059320;28;20242;-76
2020/12/30 03:14:15;;;;;;;8.93;8.13;;;0.80;99.90;;;;;;5065112;28;20210;-75
2020/12/30 03:16:43;;;;;;;10.13;9.23;;;0.80;99.90;;;;;;5065121;28;20226;-76
2020/12/30 03:19:09;;;;;;;9.90;9.10;;;0.80;99.90;;;;;;5065190;28;20279;-76
2020/12/30 03:21:36;;;;;;;9.48;8.77;;;0.80;99.90;;;;;;5071138;28;20221;-75
2020/12/30 03:24:02;;;;;;;9.18;8.38;;;0.80;99.90;;;;;;5065063;28;20720;-75
2020/12/30 03:26:31;;;;;;;9.23;8.48;;;0.80;99.90;;;;;;5068346;28;20245;-75
2020/12/30 03:28:58;;;;;;;9.57;8.77;;;0.70;99.90;;;;;;5067710;28;20228;-75
2020/12/30 03:31:25;;;;;;;10.07;9.25;;;0.70;99.90;;;;;;5073053;28;20696;-75
2020/12/30 03:33:52;;;;;;;9.48;8.75;;;0.70;99.90;;;;;;5068602;28;20248;-76
2020/12/30 03:36:19;;;;;;;8.82;8.13;;;0.70;99.90;;;;;;5070300;28;20229;-75
2020/12/30 03:38:45;;;;;;;7.88;7.28;;;0.70;99.90;;;;;;5065971;28;20704;-75
2020/12/30 03:41:12;;;;;;;8.13;7.53;;;0.80;99.90;;;;;;5061857;28;20871;-76
2020/12/30 03:43:39;;;;;;;8.65;7.95;;;0.80;99.90;;;;;;5061027;28;20234;-75
2020/12/30 03:46:05;;;;;;;8.25;7.65;;;0.80;99.90;;;;;;5072157;28;20217;-76
2020/12/30 03:48:32;;;;;;;8.68;7.95;;;0.70;99.90;;;;;;5065704;28;20236;-75
2020/12/30 03:50:59;;;;;;;8.10;7.50;;;0.70;99.90;;;;;;5068738;28;20687;-76
2020/12/30 03:53:26;;;;;;;7.95;7.35;;;0.70;99.90;;;;;;5071945;28;20229;-75
2020/12/30 03:55:53;;;;;;;8.30;7.60;;;0.80;99.90;;;;;;5069108;28;20225;-76
2020/12/30 03:58:19;;;;;;;7.60;7.03;;;0.80;99.90;;;;;;5061702;28;20301;-76
2020/12/30 04:00:46;;;;;;;8.02;7.43;;;0.80;99.90;;;;;;5070176;28;20222;-76
2020/12/30 04:03:13;;;;;;;7.60;7.03;;;0.80;99.90;;;;;;5072833;28;20234;-76
2020/12/30 04:05:39;;;;;;;8.48;7.78;;;0.80;99.90;;;;;;5067860;28;20245;-75
2020/12/30 04:08:07;;;;;;;8.23;7.63;;;0.80;99.90;;;;;;5071219;28;20267;-76
2020/12/30 04:10:33;;;;;;;9.80;9.00;;;0.80;99.90;;;;;;5066915;28;21101;-76
2020/12/30 04:13:00;;;;;;;9.80;8.93;;;0.80;99.90;;;;;;5073349;28;20214;-76
2020/12/30 04:15:26;;;;;;;8.73;7.95;;;0.80;99.90;;;;;;5068253;28;20226;-76
2020/12/30 04:17:53;;;;;;;9.02;8.32;;;0.80;99.90;;;;;;5070028;28;20237;-75
2020/12/30 04:20:19;;;;;;;8.80;8.10;;;0.80;99.90;;;;;;5069139;28;20226;-76
2020/12/30 04:22:46;;;;;;;8.10;7.40;;;0.80;99.90;;;;;;5063496;28;20226;-76
2020/12/30 04:25:13;;;;;;;8.77;8.07;;;0.80;99.90;;;;;;5070640;28;20225;-75
2020/12/30 04:27:40;;;;;;;8.98;8.25;;;0.80;99.90;;;;;;5064066;28;20214;-75
2020/12/30 04:30:06;;;;;;;8.82;8.13;;;0.80;99.90;;;;;;5071740;28;20229;-75
2020/12/30 04:32:33;;;;;;;8.43;7.72;;;0.80;99.90;;;;;;5066854;28;20226;-75
2020/12/30 04:35:00;;;;;;;7.47;6.88;;;0.90;99.90;;;;;;5071774;28;20222;-75
2020/12/30 04:37:26;;;;;;;8.02;7.43;;;0.90;99.90;;;;;;5064437;28;20222;-75
2020/12/30 04:39:53;;;;;;;8.48;7.78;;;0.90;99.90;;;;;;5069311;28;20586;-76
2020/12/30 04:42:28;;;;;;;8.95;8.25;;;0.90;99.90;;;;;;5071356;28;20214;-77
2020/12/30 04:44:57;;;;;;;8.85;8.15;;;0.90;99.90;;;;;;5060417;28;20631;-73
2020/12/30 04:47:28;;;;;;;8.88;8.23;;;0.90;99.90;;;;;;5062835;28;20229;-76
2020/12/30 04:49:55;;;;;;;8.80;8.10;;;0.80;99.90;;;;;;5068845;28;20233;-76
2020/12/30 04:52:25;;;;;;;9.32;8.60;;;0.80;99.90;;;;;;5071328;28;20249;-75
2020/12/30 04:54:52;;;;;;;9.02;8.32;;;0.80;99.90;;;;;;5075434;28;20247;-75
2020/12/30 04:57:30;;;;;;;9.77;8.95;;;0.70;99.90;;;;;;5060070;28;20379;-75
2020/12/30 04:59:57;;;;;;;10.13;9.23;;;0.70;99.90;;;;;;5064823;28;22089;-76
2020/12/30 05:02:32;;;;;;;9.18;8.38;;;0.70;99.90;;;;;;5065541;28;20234;-76
2020/12/30 05:04:59;;;;;;;9.82;9.02;;;0.60;99.90;;;;;;5044622;28;20234;-75
2020/12/30 05:07:28;;;;;;;8.55;7.85;;;0.60;99.90;;;;;;5039629;28;20701;-75
2020/12/30 05:09:55;;;;;;;10.23;9.40;;;0.60;99.90;;;;;;5038927;28;20229;-75
2020/12/30 05:12:24;;;;;;;10.15;9.32;;;0.70;99.90;;;;;;5057982;28;20621;-75
2020/12/30 05:14:50;;;;;;;10.27;9.48;;;0.70;99.90;;;;;;5063534;28;20221;-76
2020/12/30 05:17:18;;;;;;;10.65;9.65;;;0.60;99.90;;;;;;5068482;28;20221;-75
2020/12/30 05:19:46;;;;;;;11.65;10.73;;;0.60;99.90;;;;;;5067783;28;20318;-75
2020/12/30 05:22:16;;;;;;;11.50;10.50;;;0.50;99.90;;;;;;5067588;28;20224;-76
2020/12/30 05:24:45;;;;;;;10.80;9.90;;;0.40;99.90;;;;;;5062648;28;20214;-75
2020/12/30 05:27:13;;;;;;;11.25;10.25;;;0.40;99.90;;;;;;5067238;28;20328;-75
2020/12/30 05:29:46;;;;;;;10.23;9.38;;;0.40;99.90;;;;;;5062607;28;20241;-75
2020/12/30 05:32:13;;;;;;;9.10;8.40;;;0.50;99.90;;;;;;5065529;28;20221;-75
2020/12/30 05:34:40;;;;;;;9.43;8.73;;;0.50;99.90;;;;;;5065877;28;20218;-75
2020/12/30 05:37:06;;;;;;;9.98;9.18;;;0.50;99.90;;;;;;5065324;28;20260;-75
2020/12/30 05:39:34;;;;;;;9.80;8.90;;;0.50;99.90;;;;;;5068253;28;20245;-76
2020/12/30 05:42:12;;;;;;;8.98;8.27;;;0.50;99.90;;;;;;5064364;28;20264;-76
2020/12/30 05:44:39;;;;;;;8.80;8.10;;;0.60;99.90;;;;;;5059659;28;20217;-74
2020/12/30 05:47:18;;;;;;;8.05;7.45;;;0.60;99.90;;;;;;5065789;28;20744;-76
2020/12/30 05:49:45;;;;;;;9.35;8.65;;;0.60;99.90;;;;;;5066264;28;20612;-75
2020/12/30 05:52:21;;;;;;;8.60;7.90;;;0.60;99.90;;;;;;5065456;28;20214;-76
2020/12/30 05:54:49;;;;;;;9.70;8.90;;;0.60;99.90;;;;;;5064774;28;20279;-75
2020/12/30 05:57:20;;;;;;;9.32;8.50;;;0.50;99.90;;;;;;5066392;28;20214;-76
2020/12/30 05:59:47;;;;;;;9.07;8.32;;;0.50;99.90;;;;;;5061976;28;20388;-75
2020/12/30 06:02:13;;;;;;;8.63;7.93;;;0.50;99.90;;;;;;5061854;28;20249;-75
2020/12/30 06:04:41;;;;;;;9.48;8.68;;;0.50;99.90;;;;;;5066638;28;20226;-75
2020/12/30 06:07:13;;;;;;;9.15;8.45;;;0.40;99.90;;;;;;5068358;28;20221;-75
2020/12/30 06:09:40;;;;;;;8.77;8.07;;;0.40;99.90;;;;;;5062329;28;20309;-77
2020/12/30 06:12:07;;;;;;;8.88;8.18;;;0.50;99.90;;;;;;5060249;28;20226;-77
2020/12/30 06:14:34;;;;;;;8.93;7.88;;;0.50;99.90;;;;;;5062871;28;20233;-75
2020/12/30 06:17:03;;;;;;;10.18;9.23;;;0.50;99.90;;;;;;5059086;28;20309;-76
2020/12/30 06:19:29;;;;;;;10.63;9.73;;;0.60;99.90;;;;;;5055992;28;20314;-77
2020/12/30 06:21:58;;;;;;;9.38;8.60;;;0.50;99.90;;;;;;5063394;28;20229;-76
2020/12/30 06:24:25;;;;;;;8.55;7.78;;;0.50;99.90;;;;;;5068234;28;20772;-75
2020/12/30 06:26:51;;;;;;;9.20;8.40;;;0.50;99.90;;;;;;5068778;28;20233;-75
2020/12/30 06:29:18;;;;;;;8.75;8.05;;;0.50;99.90;;;;;;5068695;28;20218;-77
2020/12/30 06:31:46;;;;;;;9.85;8.95;;;0.50;99.90;;;;;;5064983;28;20228;-75
2020/12/30 06:34:14;;;;;;;10.38;9.48;;;0.50;99.90;;;;;;5065765;28;20651;-76
2020/12/30 06:36:42;;;;;;;11.45;10.45;;;0.50;99.90;;;;;;5071169;28;20225;-76
2020/12/30 06:39:23;;;;;;;10.48;9.48;;;0.50;99.90;;;;;;5057354;28;20221;-76
2020/12/30 06:42:00;;;;;;;10.70;9.75;;;0.50;99.90;;;;;;5057158;28;20265;-76
2020/12/30 06:44:40;;;;;;;9.60;8.80;;;0.50;99.90;;;;;;5058532;28;20233;-76
2020/12/30 06:47:08;;;;;;;8.07;7.47;;;0.50;99.90;;;;;;5061500;28;20214;-77
2020/12/30 06:49:35;;;;;;;9.40;8.63;;;0.50;99.90;;;;;;5059919;28;20244;-76
2020/12/30 06:52:02;;;;;;;8.63;7.93;;;0.40;99.90;;;;;;5067193;28;20221;-75
2020/12/30 06:54:48;;;;;;;8.57;7.93;;;0.40;99.90;;;;;;5067533;28;20225;-76
2020/12/30 06:57:37;;;;;;;8.25;7.65;;;0.40;99.90;;;;;;5060807;28;20214;-76
2020/12/30 07:00:36;;;;;;;8.35;7.65;;;0.30;99.90;;;;;;5058946;28;20236;-77
2020/12/30 07:03:16;;;;;;;8.73;7.93;;;0.30;99.90;;;;;;5067456;28;20233;-76
2020/12/30 07:05:43;;;;;;;7.72;7.13;;;0.30;99.90;;;;;;5067834;28;20229;-76
2020/12/30 07:08:10;;;;;;;8.50;7.82;;;0.30;99.90;;;;;;5067468;28;20230;-76
2020/12/30 07:10:42;;;;;;;7.82;7.25;;;0.40;99.90;;;;;;5071789;28;20236;-76
2020/12/30 07:13:09;;;;;;;8.05;7.45;;;0.40;99.90;;;;;;5072588;28;20491;-76
2020/12/30 07:15:35;;;;;;;8.65;8.05;;;0.40;99.90;;;;;;5069579;28;20852;-76
2020/12/30 07:18:07;;;;;;;8.82;8.13;;;0.40;99.90;;;;;;5069844;28;20219;-75
2020/12/30 07:20:41;;;;;;;8.52;7.82;;;0.40;99.90;;;;;;5072642;28;20712;-76
2020/12/30 07:23:11;;;;;;;8.55;7.85;;;0.40;99.90;;;;;;5069219;28;20228;-75
2020/12/30 07:25:38;;;;;;;7.50;6.88;;;0.50;99.90;;;;;;5073383;28;20248;-75
2020/12/30 07:28:05;;;;;;;8.43;7.82;;;0.50;99.90;;;;;;5070131;28;20221;-74
2020/12/30 07:30:33;;;;;;;8.63;7.93;;;0.60;99.90;;;;;;5065314;28;20305;-76
2020/12/30 07:33:00;;;;;;;12.90;11.68;;;0.70;99.90;;;;;;5071179;28;20221;-75
2020/12/30 07:35:27;;;;;;;12.07;10.98;;;0.70;99.90;;;;;;5065026;28;20768;-76
2020/12/30 07:37:54;;;;;;;12.23;11.10;;;0.80;99.90;;;;;;5070488;28;20233;-74
2020/12/30 07:40:20;;;;;;;11.07;9.90;;;0.90;99.90;;;;;;5069812;28;20226;-75
2020/12/30 07:42:57;;;;;;;12.73;11.52;;;0.90;99.90;;;;;;5074975;28;20217;-76
2020/12/30 07:45:24;;;;;;;15.60;13.95;;;1.00;99.90;;;;;;5057341;28;20429;-76
2020/12/30 07:47:51;;;;;;;12.45;11.25;;;1.00;99.90;;;;;;5066431;28;20210;-76
2020/12/30 07:50:17;;;;;;;12.10;10.90;;;1.10;99.90;;;;;;5083618;28;20244;-76
2020/12/30 07:52:44;;;;;;;13.18;11.90;;;1.20;99.90;;;;;;5068907;28;20597;-75
2020/12/30 07:55:10;;;;;;;13.40;12.10;;;1.20;99.90;;;;;;5065365;28;20224;-76
2020/12/30 07:57:37;;;;;;;12.48;10.98;;;1.30;99.90;;;;;;5069872;28;20228;-76
2020/12/30 08:00:04;;;;;;;11.88;10.88;;;1.50;99.90;;;;;;5064064;28;20608;-76
2020/12/30 08:02:32;;;;;;;11.50;10.50;;;1.60;99.90;;;;;;5067316;28;20237;-76
2020/12/30 08:05:02;;;;;;;10.38;9.48;;;1.80;99.90;;;;;;5064616;28;20214;-75
2020/12/30 08:07:30;;;;;;;10.07;9.27;;;2.00;99.90;;;;;;5062741;28;20233;-76
2020/12/30 08:09:56;;;;;;;9.40;8.60;;;2.20;99.90;;;;;;5060496;28;20785;-76
2020/12/30 08:12:24;;;;;;;10.50;9.60;;;2.30;99.90;;;;;;5064715;28;20715;-76
2020/12/30 08:14:53;;;;;;;9.77;8.75;;;2.40;99.90;;;;;;5058792;28;20731;-75
2020/12/30 08:17:21;;;;;;;11.48;10.43;;;2.50;99.90;;;;;;5061723;28;20270;-75
2020/12/30 08:19:50;;;;;;;11.20;10.20;;;2.40;99.90;;;;;;5070186;28;20308;-76
2020/12/30 08:22:17;;;;;;;11.52;10.52;;;2.40;99.90;;;;;;5057884;28;20214;-77
2020/12/30 08:24:45;;;;;;;12.65;11.45;;;2.40;99.90;;;;;;5063011;28;20230;-77
2020/12/30 08:27:13;;;;;;;12.18;11.07;;;2.30;99.90;;;;;;5060799;28;20244;-74
2020/12/30 08:29:41;;;;;;;11.52;10.52;;;2.30;99.90;;;;;;5060491;28;20405;-77
2020/12/30 08:32:16;;;;;;;11.55;10.55;;;2.30;99.90;;;;;;5054926;28;20226;-76
2020/12/30 08:34:47;;;;;;;12.05;10.85;;;2.40;99.90;;;;;;5053588;28;20245;-77
2020/12/30 08:37:22;;;;;;;14.65;13.25;;;2.50;99.90;;;;;;5056714;28;20217;-76
2020/12/30 08:39:56;;;;;;;14.65;13.25;;;2.60;99.90;;;;;;5057116;28;20331;-76
2020/12/30 08:42:48;;;;;;;13.52;12.20;;;2.60;99.90;;;;;;5075996;28;20226;-77
2020/12/30 08:45:18;;;;;;;12.48;11.38;;;2.70;99.90;;;;;;5055326;28;20222;-75
2020/12/30 08:47:47;;;;;;;11.93;10.82;;;2.70;99.90;;;;;;5056451;28;20229;-75
2020/12/30 08:50:15;;;;;;;11.00;10.00;;;2.70;99.90;;;;;;5053802;28;20230;-76
2020/12/30 08:52:43;;;;;;;11.18;10.00;;;2.80;99.90;;;;;;5051448;28;20773;-76
2020/12/30 08:55:10;;;;;;;11.23;10.07;;;3.00;99.90;;;;;;5052125;28;20225;-76
2020/12/30 08:57:43;;;;;;;11.48;10.48;;;3.10;99.90;;;;;;5054271;28;20230;-75
2020/12/30 09:00:23;;;;;;;11.80;10.65;;;3.10;99.90;;;;;;5058363;28;20245;-76
2020/12/30 09:02:51;;;;;;;11.85;10.85;;;3.10;99.90;;;;;;5063920;28;20968;-75
2020/12/30 09:05:26;;;;;;;11.00;10.10;;;3.10;99.90;;;;;;5063134;28;20222;-75
2020/12/30 09:07:54;;;;;;;12.63;11.52;;;3.00;99.90;;;;;;5060920;28;20217;-74
2020/12/30 09:10:21;;;;;;;12.80;11.75;;;2.90;99.90;;;;;;5056918;28;20947;-76
2020/12/30 09:12:49;;;;;;;13.63;12.25;;;2.90;99.90;;;;;;5053864;28;20222;-76
2020/12/30 09:15:16;;;;;;;20.23;15.00;;;3.00;99.90;;;;;;5061712;28;20827;-76
2020/12/30 09:17:42;;;;;;;15.10;13.13;;;3.10;99.90;;;;;;5054057;28;20218;-77
2020/12/30 09:20:14;;;;;;;13.65;12.30;;;3.20;99.90;;;;;;5052054;28;20337;-76
2020/12/30 09:22:41;;;;;;;13.68;12.38;;;3.40;99.90;;;;;;5051758;28;20221;-76
2020/12/30 09:25:23;;;;;;;14.35;12.95;;;3.40;99.90;;;;;;5055270;28;20214;-76
2020/12/30 09:27:50;;;;;;;15.60;14.05;;;3.40;99.90;;;;;;5062970;28;20786;-76
2020/12/30 09:30:18;;;;;;;14.10;12.82;;;3.20;99.90;;;;;;5058689;28;20230;-76
2020/12/30 09:32:45;;;;;;;14.40;12.27;;;3.20;99.90;;;;;;5063261;28;20790;-76
2020/12/30 09:35:13;;;;;;;13.27;11.50;;;3.20;99.90;;;;;;5066455;28;20249;-77
2020/12/30 09:37:41;;;;;;;11.23;10.23;;;3.30;99.90;;;;;;5053206;28;20249;-75
2020/12/30 09:40:11;;;;;;;10.77;9.77;;;3.60;99.90;;;;;;5052957;28;20226;-76
2020/12/30 09:42:38;;;;;;;10.30;9.20;;;4.20;99.90;;;;;;5056855;28;20222;-76
2020/12/30 09:45:07;;;;;;;9.88;9.07;;;5.30;99.90;;;;;;5056612;28;20233;-76
2020/12/30 09:47:34;;;;;;;9.75;8.85;;;6.70;99.90;;;;;;5050925;28;20233;-76
2020/12/30 09:50:00;;;;;;;10.07;9.25;;;7.70;99.90;;;;;;5048091;28;20718;-77
2020/12/30 09:52:27;;;;;;;14.40;13.00;;;8.60;99.90;;;;;;5053360;28;20237;-77
2020/12/30 09:54:53;;;;;;;17.48;15.27;;;9.60;99.90;;;;;;5055297;28;20226;-76
2020/12/30 09:57:21;;;;;;;18.58;16.73;;;10.70;99.90;;;;;;5050802;28;20279;-76
2020/12/30 09:59:47;;;;;;;17.88;16.08;;;11.30;99.90;;;;;;5054439;28;21062;-74
2020/12/30 10:02:14;;;;;;;13.25;12.05;;;11.30;99.90;;;;;;5052556;28;20279;-76
2020/12/30 10:04:41;;;;;;;12.23;11.10;;;11.40;99.90;;;;;;5053807;28;20233;-75
2020/12/30 10:07:07;;;;;;;11.82;10.77;;;11.10;99.90;;;;;;5057335;28;20253;-75
2020/12/30 10:09:34;;;;;;;11.00;10.00;;;10.80;99.90;;;;;;5053632;28;20225;-75
2020/12/30 10:12:00;;;;;;;11.40;10.40;;;10.50;99.90;;;;;;5053562;28;20700;-77
2020/12/30 10:14:28;;;;;;;11.80;9.85;;;10.50;99.90;;;;;;5058690;28;20215;-77
2020/12/30 10:16:54;;;;;;;10.50;9.48;;;10.40;99.90;;;;;;5048372;28;20221;-74
2020/12/30 10:19:21;;;;;;;10.02;9.10;;;10.20;99.90;;;;;;5053280;28;22299;-76
2020/12/30 10:21:48;;;;;;;9.88;9.00;;;10.00;99.90;;;;;;5053404;28;20271;-76
2020/12/30 10:24:14;;;;;;;10.70;9.70;;;9.90;99.90;;;;;;5056796;28;20233;-76
2020/12/30 10:26:41;;;;;;;11.00;9.85;;;9.80;99.90;;;;;;5070711;28;20279;-75
2020/12/30 10:29:07;;;;;;;11.00;10.07;;;9.80;99.90;;;;;;5056912;28;20233;-75
2020/12/30 10:31:35;;;;;;;11.55;10.45;;;9.80;99.90;;;;;;5049191;28;20218;-76
2020/12/30 10:34:01;;;;;;;10.57;9.68;;;9.90;99.90;;;;;;5058440;28;20509;-74
2020/12/30 10:36:32;;;;;;;10.43;9.43;;;10.00;99.90;;;;;;5055649;28;20232;-76
2020/12/30 10:39:00;;;;;;;11.95;10.82;;;10.00;99.90;;;;;;5049852;28;20254;-76
2020/12/30 10:41:27;;;;;;;10.88;9.77;;;9.90;99.90;;;;;;5051161;28;20375;-76
2020/12/30 10:43:55;;;;;;;14.50;13.02;;;9.60;99.90;;;;;;5049603;28;20230;-75
2020/12/30 10:46:21;;;;;;;15.20;13.80;;;9.50;99.90;;;;;;5047277;28;20271;-75
2020/12/30 10:48:49;;;;;;;15.48;13.88;;;9.30;99.90;;;;;;5049861;28;20586;-76
2020/12/30 10:51:17;;;;;;;14.52;13.23;;;9.00;99.90;;;;;;5063170;28;20265;-76
2020/12/30 10:53:45;;;;;;;13.60;12.40;;;8.90;99.90;;;;;;5053847;28;20230;-76
2020/12/30 10:56:13;;;;;;;14.00;12.75;;;9.00;99.90;;;;;;5053971;28;20217;-75
2020/12/30 10:58:40;;;;;;;13.93;12.70;;;9.00;99.90;;;;;;5056997;28;20226;-76
2020/12/30 11:01:08;;;;;;;13.43;12.15;;;8.90;99.90;;;;;;5055086;28;20226;-75
2020/12/30 11:03:35;;;;;;;14.50;13.10;;;8.70;99.90;;;;;;5049734;28;20275;-75
2020/12/30 11:06:02;;;;;;;14.20;12.90;;;8.50;99.90;;;;;;5051865;28;20354;-76
2020/12/30 11:08:29;;;;;;;13.65;12.45;;;8.30;99.90;;;;;;5053081;28;20218;-76
2020/12/30 11:10:57;;;;;;;13.77;12.48;;;8.10;99.90;;;;;;5054051;28;20358;-76
2020/12/30 11:13:36;;;;;;;12.48;11.27;;;8.10;99.90;;;;;;5051513;28;20248;-76
2020/12/30 11:16:03;;;;;;;11.65;10.60;;;8.30;99.90;;;;;;5052334;28;20227;-76
2020/12/30 11:18:29;;;;;;;11.48;10.32;;;8.60;99.90;;;;;;5061275;28;20445;-76
2020/12/30 11:20:56;;;;;;;11.00;10.05;;;9.00;99.90;;;;;;5057641;28;20223;-75
2020/12/30 11:23:23;;;;;;;10.85;9.90;;;9.10;99.90;;;;;;5058636;28;20230;-76
2020/12/30 11:25:51;;;;;;;11.90;10.80;;;9.00;99.90;;;;;;5053684;28;20315;-75
2020/12/30 11:28:17;;;;;;;12.00;10.90;;;9.00;99.90;;;;;;5053160;28;20297;-75
2020/12/30 11:30:44;;;;;;;11.55;10.43;;;9.20;99.90;;;;;;5053425;28;20656;-75
2020/12/30 11:33:10;;;;;;;11.50;10.40;;;9.40;99.90;;;;;;5050360;28;20225;-75
2020/12/30 11:35:39;;;;;;;13.20;12.00;;;9.60;99.90;;;;;;5055377;28;20677;-75
2020/12/30 11:38:06;;;;;;;14.00;12.60;;;9.70;99.90;;;;;;5058010;28;20311;-74
2020/12/30 11:40:33;;;;;;;13.95;12.55;;;9.70;99.90;;;;;;5056643;28;20634;-76
2020/12/30 11:43:00;;;;;;;21.13;13.65;;;10.00;99.90;;;;;;5053906;28;20222;-75
2020/12/30 11:45:26;;;;;;;14.68;12.38;;;10.40;99.90;;;;;;5060353;28;20281;-74
2020/12/30 11:47:54;;;;;;;16.55;12.55;;;10.50;99.90;;;;;;5060459;28;20226;-73
2020/12/30 11:50:21;;;;;;;14.60;13.10;;;10.50;99.90;;;;;;5056017;28;20736;-75
2020/12/30 11:52:47;;;;;;;13.07;11.77;;;10.70;99.90;;;;;;5056964;28;20217;-76
2020/12/30 11:55:14;;;;;;;11.70;10.60;;;10.70;99.90;;;;;;5059448;28;20222;-75
2020/12/30 11:57:41;;;;;;;11.73;10.60;;;10.40;99.90;;;;;;5056382;28;20229;-75
2020/12/30 12:00:10;;;;;;;11.95;10.80;;;10.00;99.90;;;;;;5058265;28;20812;-75
2020/12/30 12:02:36;;;;;;;12.57;11.35;;;9.60;99.90;;;;;;5063213;28;20232;-74
2020/12/30 12:05:04;;;;;;;13.32;12.02;;;9.30;99.90;;;;;;5066588;28;20225;-75
2020/12/30 12:07:31;;;;;;;12.35;11.15;;;9.20;99.90;;;;;;5061449;28;20226;-75
2020/12/30 12:09:58;;;;;;;12.80;11.50;;;9.30;99.90;;;;;;5063093;28;20574;-74
2020/12/30 12:12:24;;;;;;;11.10;10.10;;;9.40;99.90;;;;;;5070075;28;20229;-76
2020/12/30 12:14:52;;;;;;;12.98;11.70;;;9.30;99.90;;;;;;5064761;28;20222;-77
2020/12/30 12:17:18;;;;;;;11.23;10.15;;;8.80;99.90;;;;;;5058227;28;20226;-76
2020/12/30 12:19:46;;;;;;;11.65;10.55;;;8.30;99.90;;;;;;5058530;28;20234;-75
2020/12/30 12:22:13;;;;;;;12.43;11.32;;;7.90;99.90;;;;;;5065657;28;20904;-75
2020/12/30 12:24:40;;;;;;;11.35;10.00;;;7.60;99.90;;;;;;5053137;28;20279;-76
2020/12/30 12:27:07;;;;;;;11.77;10.57;;;7.40;99.90;;;;;;5053194;28;20226;-75
2020/12/30 12:29:45;;;;;;;12.55;10.65;;;7.10;99.90;;;;;;5059625;28;20253;-76
2020/12/30 12:32:13;;;;;;;14.02;10.75;;;6.90;99.90;;;;;;5066491;28;21002;-76
2020/12/30 12:34:43;;;;;;;11.52;10.43;;;6.90;99.90;;;;;;5063177;28;20692;-77
2020/12/30 12:37:11;;;;;;;12.05;10.88;;;7.00;99.90;;;;;;5060032;28;20221;-76
2020/12/30 12:39:38;;;;;;;11.27;10.27;;;7.20;99.90;;;;;;5066127;28;20226;-76
2020/12/30 12:42:06;;;;;;;13.27;12.07;;;7.30;99.90;;;;;;5063502;28;20225;-77
2020/12/30 12:44:33;;;;;;;12.35;11.25;;;7.20;99.90;;;;;;5068002;28;20646;-75
2020/12/30 12:47:00;;;;;;;11.95;10.75;;;7.20;99.90;;;;;;5068337;28;20214;-79
2020/12/30 12:49:28;;;;;;;13.70;12.50;;;7.10;99.90;;;;;;5063096;28;20566;-76
2020/12/30 12:51:55;;;;;;;15.27;13.80;;;6.90;99.90;;;;;;5062129;28;20229;-76